KPDK

Dekalb-Peachtree Airport

Atlanta, Georgia, USA
METAR KPDK 210512Z AUTO 23006KT 10SM BKN014 23/22 A3007 RMK AO2 T02280217 TSNO
Observed Flight Rules
Aug-21 @ 05:12 UTC (9 hours ago) Marginal Visual Flight Rules
Wind Visibility Clouds
230° at 6 knots 10 miles
  • Broken at 1,400' AGL
Temperatures Readings
Current 23°C / 73°F
Dewpoint 22°C / 72°F
Humidity 94%
Altimeter 30.07" Hg
Pressure 1018 hPa
Elevation 302
METAR KPDK 210512Z AUTO 23006KT 10SM BKN014 23/22 A3007 RMK AO2 T02280217 TSNO
Observed Flight Rules
Aug-21 @ 05:12 UTC
(9 hours ago)
MVFR
Wind Visibility
230° at 6 knots 10 miles
Clouds
  • Broken at 1,400' AGL
Temperature Dewpoint
23°C / 73°F 22°C / 72°F
Humidity Altimeter Pressure
94% 30.07" Hg 1018 hPa